createdAt,value
2022-09-07T00:02:27.797Z,101046.14
2022-09-07T00:05:20.368Z,101053.56
2022-09-07T00:08:12.849Z,101058.08
2022-09-07T00:11:08.219Z,101058.30
2022-09-07T00:14:00.338Z,101057.89
2022-09-07T00:16:52.673Z,101058.31
2022-09-07T00:19:48.705Z,101062.25
2022-09-07T00:22:41.543Z,101056.47
2022-09-07T00:25:33.688Z,101055.05
2022-09-07T00:28:25.722Z,101049.89
2022-09-07T00:31:20.363Z,101046.61
2022-09-07T00:34:12.646Z,101049.70
2022-09-07T00:37:05.446Z,101046.41
2022-09-07T00:39:57.281Z,101053.83
2022-09-07T00:42:49.707Z,101049.73
2022-09-07T00:45:42.297Z,101057.14
2022-09-07T00:48:38.542Z,101047.67
2022-09-07T00:51:38.575Z,101039.25
2022-09-07T00:54:36.219Z,101043.15
2022-09-07T00:57:29.281Z,101043.37
2022-09-07T01:00:22.456Z,101043.53
2022-09-07T01:03:18.159Z,101033.25
2022-09-07T01:06:17.769Z,101033.66
2022-09-07T01:09:15.852Z,101039.23
2022-09-07T01:12:08.590Z,101043.14
2022-09-07T01:15:03.296Z,101040.87
2022-09-07T01:18:03.565Z,101041.29
2022-09-07T01:21:25.027Z,101054.89
2022-09-07T01:24:40.458Z,101056.33
2022-09-07T01:28:03.980Z,101058.39
2022-09-07T01:31:00.569Z,101056.12
2022-09-07T01:34:02.580Z,101061.66
2022-09-07T01:37:07.106Z,101055.70
2022-09-07T01:40:06.792Z,101060.43
2022-09-07T01:43:05.503Z,101057.98
2022-09-07T01:45:59.896Z,101056.52
2022-09-07T01:48:56.255Z,101054.88
2022-09-07T01:51:53.700Z,101049.75
2022-09-07T01:54:53.702Z,101045.62
2022-09-07T01:57:51.673Z,101050.16
2022-09-07T02:00:48.653Z,101055.50
2022-09-07T02:03:46.798Z,101048.70
2022-09-07T02:06:46.858Z,101040.68
2022-09-07T02:09:42.742Z,101038.42
2022-09-07T02:12:39.295Z,101045.62
2022-09-07T02:15:42.608Z,101048.49
2022-09-07T02:18:40.186Z,101044.39
2022-09-07T02:21:36.473Z,101046.45
2022-09-07T02:24:32.533Z,101045.83
2022-09-07T02:27:30.382Z,101044.38
2022-09-07T02:30:22.901Z,101039.66
2022-09-07T02:33:15.336Z,101034.91
2022-09-07T02:36:09.976Z,101035.31
2022-09-07T02:39:02.677Z,101025.03
2022-09-07T02:41:55.643Z,101030.37
2022-09-07T02:44:48.881Z,101032.24
2022-09-07T02:47:59.568Z,101039.64
2022-09-07T02:51:12.077Z,101034.48
2022-09-07T02:54:21.108Z,101036.34
2022-09-07T02:57:26.044Z,101033.05
2022-09-07T03:00:21.104Z,101037.78
2022-09-07T03:03:24.241Z,101032.63
2022-09-07T03:06:25.486Z,101032.84
2022-09-07T03:09:21.476Z,101030.36
2022-09-07T03:12:15.130Z,101022.34
2022-09-07T03:15:08.349Z,101028.70
2022-09-07T03:17:59.985Z,101026.25
2022-09-07T03:20:53.022Z,101028.09
2022-09-07T03:23:47.796Z,101028.30
2022-09-07T03:26:48.686Z,101033.65
2022-09-07T03:29:42.172Z,101038.38
2022-09-07T03:32:37.437Z,101043.28
2022-09-07T03:35:30.109Z,101037.13
2022-09-07T03:38:22.295Z,101041.63
2022-09-07T03:41:14.582Z,101043.68
2022-09-07T03:44:09.137Z,101049.23
2022-09-07T03:47:02.608Z,101051.07
2022-09-07T03:49:55.777Z,101052.09
2022-09-07T03:52:48.098Z,101056.81
2022-09-07T03:55:38.492Z,101061.53
2022-09-07T03:58:32.275Z,101052.89
2022-09-07T04:01:26.741Z,101060.72
2022-09-07T04:04:19.558Z,101062.55
2022-09-07T04:07:11.614Z,101056.19
2022-09-07T04:10:02.476Z,101061.53
2022-09-07T04:12:55.303Z,101058.86
2022-09-07T04:15:50.979Z,101055.38
2022-09-07T04:18:46.060Z,101058.67
2022-09-07T04:21:38.453Z,101064.83
2022-09-07T04:24:31.160Z,101064.64
2022-09-07T04:27:23.984Z,101072.44
2022-09-07T04:30:15.452Z,101077.59
2022-09-07T04:33:07.746Z,101078.41
2022-09-07T04:36:00.679Z,101080.67
2022-09-07T04:38:57.953Z,101083.97
2022-09-07T04:41:50.176Z,101086.23
2022-09-07T04:44:44.201Z,101079.69
2022-09-07T04:47:36.356Z,101088.95
2022-09-07T04:50:28.325Z,101090.19
2022-09-07T04:53:23.093Z,101090.41
2022-09-07T04:56:17.035Z,101088.14
2022-09-07T04:59:09.753Z,101091.65
2022-09-07T05:02:01.885Z,101093.52
2022-09-07T05:04:59.429Z,101098.27
2022-09-07T05:07:54.774Z,101102.58
2022-09-07T05:10:54.467Z,101099.93
2022-09-07T05:13:47.479Z,101099.92
2022-09-07T05:16:39.592Z,101097.05
2022-09-07T05:19:32.170Z,101099.33
2022-09-07T05:22:25.935Z,101099.13
2022-09-07T05:25:19.464Z,101093.56
2022-09-07T05:28:12.021Z,101093.38
2022-09-07T05:37:19.891Z,101105.88
2022-09-07T05:40:15.604Z,101106.69
2022-09-07T05:43:10.147Z,101108.33
2022-09-07T05:46:02.243Z,101101.52
2022-09-07T05:48:54.980Z,101097.39
2022-09-07T05:51:48.699Z,101091.39
2022-09-07T05:54:42.319Z,101092.19
2022-09-07T05:57:34.349Z,101090.11
2022-09-07T06:00:27.405Z,101086.16
2022-09-07T06:03:20.017Z,101086.72
2022-09-07T06:06:14.444Z,101084.40
2022-09-07T06:09:09.316Z,101083.72
2022-09-07T06:12:05.643Z,101075.25
2022-09-07T06:14:57.918Z,101071.07
2022-09-07T06:17:48.403Z,101072.22
2022-09-07T06:20:40.694Z,101078.75
2022-09-07T06:23:34.451Z,101078.84
2022-09-07T06:26:26.417Z,101085.14
2022-09-07T06:29:19.193Z,101085.47
2022-09-07T06:35:24.536Z,101094.70
2022-09-07T06:38:14.631Z,101103.90
2022-09-07T06:44:21.148Z,101097.28
2022-09-07T06:47:13.460Z,101100.27
2022-09-07T06:50:06.832Z,101087.92
2022-09-07T06:56:15.672Z,101094.59
2022-09-07T06:59:07.794Z,101089.48
2022-09-07T07:02:00.824Z,101097.61
2022-09-07T07:04:53.349Z,101096.61
2022-09-07T07:07:45.077Z,101103.42
2022-09-07T07:10:40.549Z,101106.16
2022-09-07T07:13:33.429Z,101100.77
2022-09-07T07:16:26.405Z,101101.38
2022-09-07T07:19:18.999Z,101112.50
2022-09-07T07:22:35.942Z,101112.27
2022-09-07T07:25:25.011Z,101116.97
2022-09-07T07:31:29.936Z,101109.78
2022-09-07T07:34:22.378Z,101104.70
2022-09-07T07:37:14.549Z,101100.89
2022-09-07T07:43:07.588Z,101090.11
2022-09-07T07:46:01.264Z,101089.58
2022-09-07T07:48:58.835Z,101084.75
2022-09-07T07:55:42.883Z,101088.49
2022-09-07T07:58:18.211Z,101091.29
2022-09-07T08:01:10.424Z,101085.83
2022-09-07T08:04:01.368Z,101091.43
2022-09-07T08:06:55.487Z,101084.34
2022-09-07T08:09:49.495Z,101088.05
2022-09-07T08:12:41.611Z,101076.09
2022-09-07T08:15:45.675Z,101084.12
2022-09-07T08:18:38.676Z,101079.41
2022-09-07T08:21:30.766Z,101084.67
2022-09-07T08:24:23.011Z,101083.48
2022-09-07T08:27:15.896Z,101083.34
2022-09-07T08:30:14.192Z,101077.77
2022-09-07T08:33:05.959Z,101080.84
2022-09-07T08:36:03.063Z,101081.19
2022-09-07T08:38:55.301Z,101079.88
2022-09-07T08:42:09.348Z,101082.67
2022-09-07T08:45:07.537Z,101088.44
2022-09-07T08:48:00.668Z,101077.34
2022-09-07T08:50:58.491Z,101073.85
2022-09-07T08:53:53.367Z,101066.58
2022-09-07T09:00:08.797Z,101058.13
2022-09-07T09:06:27.030Z,101053.47
2022-09-07T09:09:32.302Z,101050.99
2022-09-07T09:12:36.839Z,101045.77
2022-09-07T09:15:37.931Z,101045.94
2022-09-07T09:18:51.735Z,101043.67
2022-09-07T09:21:45.788Z,101039.00
2022-09-07T09:24:42.563Z,101040.25
2022-09-07T09:27:34.317Z,101032.54
2022-09-07T09:30:28.221Z,101035.14
2022-09-07T09:33:22.929Z,101039.92
2022-09-07T09:36:32.725Z,101041.48
2022-09-07T09:39:34.580Z,101031.33
2022-09-07T09:42:31.607Z,101031.44
2022-09-07T09:45:28.540Z,101029.16
2022-09-07T09:48:27.304Z,101029.56
2022-09-07T09:54:38.533Z,101027.20
2022-09-07T10:01:23.182Z,101019.48
2022-09-07T10:04:30.632Z,101018.03
2022-09-07T10:07:28.284Z,101009.39
2022-09-07T10:10:21.125Z,101017.42
2022-09-07T10:13:24.022Z,101017.30
2022-09-07T10:16:16.160Z,101006.61
2022-09-07T10:19:23.743Z,101009.34
2022-09-07T10:22:32.298Z,101001.16
2022-09-07T10:25:33.572Z,100997.52
2022-09-07T10:29:06.622Z,100995.30
2022-09-07T10:31:57.732Z,100986.91
2022-09-07T10:35:05.284Z,100990.75
2022-09-07T10:38:10.788Z,100977.09
2022-09-07T10:41:07.479Z,100975.82
2022-09-07T10:44:00.241Z,100972.92
2022-09-07T10:47:00.435Z,100979.31
2022-09-07T10:54:29.426Z,100970.23
2022-09-07T10:56:51.836Z,100963.95
2022-09-07T11:00:09.555Z,100962.55
2022-09-07T11:03:26.496Z,100959.72
2022-09-07T11:06:23.331Z,100950.53
2022-09-07T11:09:40.654Z,100956.12
2022-09-07T11:12:36.985Z,100945.07
2022-09-07T11:15:32.862Z,100946.60
2022-09-07T11:18:29.580Z,100947.56
2022-09-07T11:24:45.252Z,100947.88
2022-09-07T11:27:43.763Z,100941.39
2022-09-07T11:30:43.646Z,100942.34
2022-09-07T11:33:42.134Z,100943.87
2022-09-07T11:36:46.765Z,100941.82
2022-09-07T11:39:46.233Z,100941.52
2022-09-07T11:42:48.159Z,100933.98
2022-09-07T11:45:50.038Z,100934.70
2022-09-07T11:48:47.598Z,100932.14
2022-09-07T11:51:53.570Z,100930.91
2022-09-07T11:54:52.949Z,100928.55
2022-09-07T11:57:56.320Z,100925.89
2022-09-07T12:00:59.828Z,100912.09
2022-09-07T12:04:31.030Z,100907.48
2022-09-07T12:07:46.486Z,100911.41
2022-09-07T12:11:06.769Z,100906.47
2022-09-07T12:14:29.503Z,100907.82
2022-09-07T12:17:48.060Z,100900.00
2022-09-07T12:20:44.672Z,100897.97
2022-09-07T12:23:37.491Z,100893.52
2022-09-07T12:26:58.196Z,100887.79
2022-09-07T12:29:52.828Z,100885.70
2022-09-07T12:35:48.754Z,100884.46
2022-09-07T12:39:07.538Z,100881.56
2022-09-07T12:42:39.453Z,100883.52
2022-09-07T12:46:02.305Z,100880.44
2022-09-07T12:49:01.260Z,100883.34
2022-09-07T12:52:09.134Z,100883.67
2022-09-07T12:55:28.039Z,100885.59
2022-09-07T12:58:33.453Z,100879.77
2022-09-07T13:01:36.951Z,100881.05
2022-09-07T13:04:59.626Z,100871.55
2022-09-07T13:08:21.148Z,100869.59
2022-09-07T13:11:34.508Z,100871.21
2022-09-07T13:14:30.928Z,100873.61
2022-09-07T13:17:56.471Z,100868.13
2022-09-07T13:21:08.669Z,100868.23
2022-09-07T13:24:47.008Z,100861.44
2022-09-07T13:27:52.606Z,100866.77
2022-09-07T13:31:01.476Z,100857.87
2022-09-07T13:33:55.236Z,100861.88
2022-09-07T13:36:52.083Z,100860.40
2022-09-07T13:39:47.728Z,100863.61
2022-09-07T13:42:40.422Z,100861.01
2022-09-07T13:45:46.016Z,100856.79
2022-09-07T13:48:42.997Z,100853.07
2022-09-07T13:51:41.702Z,100854.48
2022-09-07T13:54:51.420Z,100854.98
2022-09-07T13:57:56.081Z,100849.07
2022-09-07T14:01:02.429Z,100848.09
2022-09-07T14:03:59.680Z,100853.11
2022-09-07T14:06:51.904Z,100845.03
2022-09-07T14:09:44.772Z,100839.39
2022-09-07T14:12:45.292Z,100838.41
2022-09-07T14:15:40.933Z,100846.61
2022-09-07T14:18:34.742Z,100839.52
2022-09-07T14:21:27.155Z,100837.09
2022-09-07T14:24:32.200Z,100837.41
2022-09-07T14:27:26.174Z,100836.92
2022-09-07T14:30:25.788Z,100832.86
2022-09-07T14:33:20.506Z,100834.91
2022-09-07T14:36:39.301Z,100834.24
2022-09-07T14:39:27.137Z,100840.63
2022-09-07T14:42:22.138Z,100828.20
2022-09-07T14:45:37.826Z,100835.23
2022-09-07T14:48:32.552Z,100830.77
2022-09-07T14:51:35.518Z,100832.02
2022-09-07T14:54:31.397Z,100827.48
2022-09-07T14:57:32.604Z,100832.45
2022-09-07T15:00:33.190Z,100830.34
2022-09-07T15:03:35.750Z,100833.37
2022-09-07T15:09:56.211Z,100828.84
2022-09-07T15:12:48.228Z,100820.64
2022-09-07T15:15:46.857Z,100825.28
2022-09-07T15:18:57.253Z,100820.94
2022-09-07T15:21:49.054Z,100813.67
2022-09-07T15:24:42.512Z,100815.41
2022-09-07T15:27:34.747Z,100816.81
2022-09-07T15:30:27.437Z,100818.25
2022-09-07T15:33:20.146Z,100815.63
2022-09-07T15:36:14.463Z,100804.81
2022-09-07T15:39:07.290Z,100804.42
2022-09-07T15:42:58.896Z,100801.27
2022-09-07T15:45:14.115Z,100806.34
2022-09-07T15:48:07.077Z,100801.59
2022-09-07T15:52:04.803Z,100800.69
2022-09-07T15:54:20.638Z,100805.25
2022-09-07T16:00:25.587Z,100800.38
2022-09-07T16:03:17.724Z,100796.73
2022-09-07T16:06:13.776Z,100796.89
2022-09-07T16:09:06.578Z,100799.52
2022-09-07T16:12:59.944Z,100792.63
2022-09-07T16:15:14.435Z,100795.82
2022-09-07T16:18:06.862Z,100784.29
2022-09-07T16:21:04.931Z,100782.02
2022-09-07T16:23:57.228Z,100786.50
2022-09-07T16:26:50.898Z,100787.77
2022-09-07T16:29:43.671Z,100780.05
2022-09-07T16:32:51.006Z,100778.28
2022-09-07T16:35:42.970Z,100785.25
2022-09-07T16:38:50.895Z,100787.61
2022-09-07T16:41:44.617Z,100784.47
2022-09-07T16:44:37.500Z,100781.66
2022-09-07T16:47:29.327Z,100777.14
2022-09-07T16:50:23.450Z,100786.52
2022-09-07T16:53:15.850Z,100784.49
2022-09-07T16:56:10.633Z,100784.91
2022-09-07T16:59:04.959Z,100781.44
2022-09-07T17:01:57.477Z,100782.63
2022-09-07T17:04:50.788Z,100791.98
2022-09-07T17:07:43.243Z,100795.61
2022-09-07T17:10:35.997Z,100791.05
2022-09-07T17:13:28.681Z,100799.02
2022-09-07T17:16:23.443Z,100790.94
2022-09-07T17:19:32.225Z,100796.13
2022-09-07T17:22:26.724Z,100796.19
2022-09-07T17:25:19.029Z,100810.36
2022-09-07T17:28:11.450Z,100809.33
2022-09-07T17:31:10.538Z,100802.06
2022-09-07T17:34:03.205Z,100810.79
2022-09-07T17:36:55.804Z,100810.28
2022-09-07T17:39:47.847Z,100813.28
2022-09-07T17:45:53.773Z,100820.35
2022-09-07T17:48:48.004Z,100826.06
2022-09-07T17:51:39.798Z,100821.73
2022-09-07T17:54:32.977Z,100823.13
2022-09-07T17:57:25.458Z,100818.52
2022-09-07T18:00:19.501Z,100825.33
2022-09-07T18:03:13.027Z,100817.45
2022-09-07T18:06:05.873Z,100820.72
2022-09-07T18:08:58.301Z,100825.89
2022-09-07T18:11:50.847Z,100821.53
2022-09-07T18:14:43.744Z,100829.12
2022-09-07T18:17:36.344Z,100833.71
2022-09-07T18:20:28.290Z,100827.48
2022-09-07T18:23:20.729Z,100828.28
2022-09-07T18:26:14.699Z,100838.58
2022-09-07T18:29:26.183Z,100836.94
2022-09-07T18:32:20.660Z,100838.30
2022-09-07T18:35:14.560Z,100838.54
2022-09-07T18:38:07.299Z,100831.48
2022-09-07T18:41:09.363Z,100835.55
2022-09-07T18:44:03.118Z,100834.16
2022-09-07T18:46:55.740Z,100837.09
2022-09-07T18:49:45.652Z,100838.16
2022-09-07T18:52:59.109Z,100837.84
2022-09-07T18:55:51.245Z,100839.42
2022-09-07T18:58:45.548Z,100841.55
2022-09-07T19:01:38.098Z,100845.31
2022-09-07T19:05:49.788Z,100837.70
2022-09-07T19:07:40.672Z,100830.08
2022-09-07T19:10:34.048Z,100835.98
2022-09-07T19:13:26.125Z,100833.52
2022-09-07T19:16:18.449Z,100832.94
2022-09-07T19:19:11.525Z,100833.39
2022-09-07T19:22:04.934Z,100833.87
2022-09-07T19:24:57.780Z,100832.45
2022-09-07T19:27:50.148Z,100834.56
2022-09-07T19:30:42.054Z,100836.67
2022-09-07T19:33:36.443Z,100834.44
2022-09-07T19:36:29.729Z,100834.63
2022-09-07T19:39:21.920Z,100828.07
2022-09-07T19:42:13.865Z,100830.44
2022-09-07T19:45:04.333Z,100816.83
2022-09-07T19:47:56.699Z,100824.53
2022-09-07T19:50:50.988Z,100823.12
2022-09-07T19:53:44.867Z,100818.97
2022-09-07T19:56:38.219Z,100823.75
2022-09-07T19:59:29.986Z,100826.66
2022-09-07T20:02:21.778Z,100826.05
2022-09-07T20:05:14.809Z,100830.55
2022-09-07T20:08:07.419Z,100821.27
2022-09-07T20:11:04.890Z,100825.80
2022-09-07T20:13:57.277Z,100825.96
2022-09-07T20:16:47.319Z,100823.70
2022-09-07T20:19:39.321Z,100824.96
2022-09-07T20:22:31.548Z,100833.75
2022-09-07T20:25:24.462Z,100837.70
2022-09-07T20:28:17.280Z,100841.13
2022-09-07T20:31:11.706Z,100837.56
2022-09-07T20:34:03.716Z,100838.78
2022-09-07T20:36:54.351Z,100845.98
2022-09-07T20:39:48.842Z,100845.34
2022-09-07T20:42:42.166Z,100847.37
2022-09-07T20:45:38.203Z,100849.16
2022-09-07T20:48:30.352Z,100850.97
2022-09-07T20:51:23.168Z,100854.64
2022-09-07T20:54:14.966Z,100853.49
2022-09-07T20:57:06.989Z,100841.80
2022-09-07T20:59:59.194Z,100857.64
2022-09-07T21:02:51.141Z,100854.86
2022-09-07T21:05:42.864Z,100859.10
2022-09-07T21:08:39.157Z,100862.50
2022-09-07T21:11:33.805Z,100857.83
2022-09-07T21:14:25.925Z,100856.67
2022-09-07T21:17:18.811Z,100854.69
2022-09-07T21:20:12.024Z,100847.09
2022-09-07T21:23:03.739Z,100847.00
2022-09-07T21:25:55.691Z,100842.92
2022-09-07T21:28:47.373Z,100844.47
2022-09-07T21:31:39.577Z,100845.17
2022-09-07T21:34:32.654Z,100849.39
2022-09-07T21:37:24.433Z,100844.75
2022-09-07T21:40:17.522Z,100846.25
2022-09-07T21:43:09.550Z,100848.84
2022-09-07T21:45:59.711Z,100844.77
2022-09-07T21:48:51.985Z,100847.36
2022-09-07T21:51:44.662Z,100837.55
2022-09-07T21:54:38.468Z,100841.52
2022-09-07T21:57:30.588Z,100836.86
2022-09-07T22:00:23.221Z,100837.81
2022-09-07T22:03:15.884Z,100828.58
2022-09-07T22:06:08.235Z,100837.02
2022-09-07T22:09:00.849Z,100832.33
2022-09-07T22:11:52.561Z,100832.18
2022-09-07T22:14:46.789Z,100837.23
2022-09-07T22:17:40.562Z,100834.17
2022-09-07T22:20:36.271Z,100845.06
2022-09-07T22:23:30.503Z,100843.31
2022-09-07T22:26:24.089Z,100850.21
2022-09-07T22:29:16.414Z,100849.04
2022-09-07T22:32:08.633Z,100837.70
2022-09-07T22:35:00.266Z,100836.06
2022-09-07T22:37:52.670Z,100842.12
2022-09-07T22:40:44.697Z,100829.87
2022-09-07T22:43:35.000Z,100831.14
2022-09-07T22:46:28.700Z,100837.22
2022-09-07T22:49:20.795Z,100826.69
2022-09-07T22:52:13.037Z,100824.25
2022-09-07T22:55:05.476Z,100817.70
2022-09-07T22:57:57.913Z,100820.85
2022-09-07T23:00:49.739Z,100826.69
2022-09-07T23:03:41.827Z,100829.00
2022-09-07T23:06:35.803Z,100819.55
2022-09-07T23:09:27.921Z,100810.08
2022-09-07T23:12:18.279Z,100801.09
2022-09-07T23:15:12.404Z,100805.75
2022-09-07T23:18:05.160Z,100810.75
2022-09-07T23:21:00.798Z,100805.84
2022-09-07T23:23:57.006Z,100809.81
2022-09-07T23:26:49.701Z,100812.95
2022-09-07T23:29:41.935Z,100804.28
2022-09-07T23:32:34.214Z,100801.47
2022-09-07T23:35:26.409Z,100805.41
2022-09-07T23:38:19.323Z,100805.06
2022-09-07T23:41:14.365Z,100807.38
2022-09-07T23:44:07.690Z,100800.61
2022-09-07T23:47:00.075Z,100796.16
2022-09-07T23:49:52.097Z,100795.78
2022-09-07T23:52:44.549Z,100789.47
2022-09-07T23:55:36.372Z,100789.09
2022-09-07T23:58:28.603Z,100792.02
